Time;durP1;ratioP1;P1;durP2;ratioP2;P2;SDS_P1;SDS_P2;PMS_P1;PMS_P2;Temp;Humidity;BMP_temperature;BMP_pressure;BME280_temperature;BME280_humidity;BME280_pressure;Samples;Min_cycle;Max_cycle;Signal;HPM_P1;HPM_P2
2022/01/31 00:02:23;;;;;;;2.28;1.48;;;;;;;15.23;39.36;93404.31;5045584;28;20461;-81
2022/01/31 00:04:48;;;;;;;2.40;1.60;;;;;;;15.24;39.15;93403.09;5029912;28;20037;-83
2022/01/31 00:07:14;;;;;;;2.47;1.55;;;;;;;15.26;38.74;93390.47;5045491;28;20037;-82
2022/01/31 00:09:43;;;;;;;3.25;1.63;;;;;;;15.29;39.17;93384.06;5047255;28;20053;-85
2022/01/31 00:12:14;;;;;;;1.73;1.50;;;;;;;15.25;38.99;93371.91;4991968;28;20496;-82
2022/01/31 00:14:44;;;;;;;2.58;1.50;;;;;;;15.26;39.06;93371.41;5009213;28;20176;-85
2022/01/31 00:17:10;;;;;;;2.03;1.60;;;;;;;15.28;39.23;93362.75;4976488;28;20129;-82
2022/01/31 00:19:37;;;;;;;2.13;1.33;;;;;;;15.29;39.20;93350.63;5008108;28;20038;-85
2022/01/31 00:22:03;;;;;;;4.30;1.20;;;;;;;15.26;39.14;93338.72;5024613;28;20045;-81
2022/01/31 00:24:29;;;;;;;2.13;1.92;;;;;;;15.26;39.10;93351.59;5024690;28;20594;-82
2022/01/31 00:26:54;;;;;;;2.35;1.35;;;;;;;15.22;39.39;93349.13;4995321;28;20033;-82
2022/01/31 00:29:20;;;;;;;1.52;1.20;;;;;;;15.22;38.95;93353.81;4994928;28;20041;-82
2022/01/31 00:31:45;;;;;;;1.63;1.25;;;;;;;15.24;39.08;93348.63;4995164;28;20041;-82
2022/01/31 00:34:11;;;;;;;2.97;1.48;;;;;;;15.24;39.16;93338.47;5011111;28;20048;-83
2022/01/31 00:36:36;;;;;;;1.58;1.10;;;;;;;15.28;39.11;93340.97;4995142;28;20041;-82
2022/01/31 00:39:02;;;;;;;1.60;1.40;;;;;;;15.25;39.15;93344.66;5028169;28;20184;-82
2022/01/31 00:41:27;;;;;;;2.67;1.40;;;;;;;15.27;39.38;93342.19;5047673;28;20047;-82
2022/01/31 00:44:02;;;;;;;1.88;1.55;;;;;;;15.24;39.06;93338.47;5050391;28;20037;-82
2022/01/31 00:46:40;;;;;;;3.25;1.67;;;;;;;15.23;39.21;93334.25;5033806;28;20037;-82
2022/01/31 00:49:11;;;;;;;2.45;1.20;;;;;;;15.24;39.15;93322.13;5033974;28;20025;-82
2022/01/31 00:51:37;;;;;;;3.22;1.33;;;;;;;15.23;39.23;93322.63;5049602;28;20041;-82
2022/01/31 00:54:02;;;;;;;1.65;1.20;;;;;;;15.27;39.11;93310.28;5032279;28;20098;-82
2022/01/31 00:56:27;;;;;;;2.63;1.50;;;;;;;15.27;39.25;93306.81;5032151;28;20041;-81
2022/01/31 00:58:53;;;;;;;2.42;1.40;;;;;;;15.25;39.33;93304.56;5032661;28;20463;-82
2022/01/31 01:01:18;;;;;;;1.83;1.23;;;;;;;15.21;39.29;93301.34;5049785;28;20045;-82
2022/01/31 01:03:44;;;;;;;1.77;1.23;;;;;;;15.29;38.78;93286.00;5050544;28;20034;-81
2022/01/31 01:06:10;;;;;;;2.05;1.10;;;;;;;15.28;39.01;93278.34;5031969;28;20033;-81
2022/01/31 01:08:36;;;;;;;1.67;1.13;;;;;;;15.26;38.93;93265.22;5049217;28;20116;-82
2022/01/31 01:11:02;;;;;;;1.83;1.05;;;;;;;15.32;39.10;93270.66;5048470;28;20082;-81
2022/01/31 01:13:27;;;;;;;3.03;1.10;;;;;;;15.33;38.40;93269.44;5031655;28;20033;-82
2022/01/31 01:15:52;;;;;;;2.88;1.27;;;;;;;15.29;38.96;93269.66;5048733;28;20037;-82
2022/01/31 01:18:18;;;;;;;2.35;1.20;;;;;;;15.34;38.54;93252.59;5048102;28;20511;-81
2022/01/31 01:20:43;;;;;;;1.70;1.00;;;;;;;15.36;38.58;93261.03;5050104;28;20049;-82
2022/01/31 01:23:08;;;;;;;1.92;1.02;;;;;;;15.30;38.88;93265.72;5049818;28;20094;-82
2022/01/31 01:25:34;;;;;;;2.47;1.40;;;;;;;15.34;38.90;93258.03;5032062;28;20147;-83
2022/01/31 01:27:59;;;;;;;2.20;1.27;;;;;;;15.31;38.81;93248.13;5015752;28;20056;-82
2022/01/31 01:30:25;;;;;;;3.38;1.20;;;;;;;15.21;39.16;93246.88;5031606;28;20044;-83
2022/01/31 01:35:21;;;;;;;3.92;1.30;;;;;;;15.33;38.62;93251.13;5032514;28;24121;-82
2022/01/31 01:37:47;;;;;;;2.15;1.08;;;;;;;15.25;38.67;93241.94;5031162;28;20036;-82
2022/01/31 01:40:13;;;;;;;1.98;1.17;;;;;;;15.29;38.90;93255.31;5047507;28;20037;-82
2022/01/31 01:42:40;;;;;;;2.25;1.27;;;;;;;15.30;38.95;93246.66;5048677;28;20044;-82
2022/01/31 01:45:06;;;;;;;2.00;1.05;;;;;;;15.27;38.97;93230.56;5047921;28;20503;-82
2022/01/31 01:47:31;;;;;;;4.28;1.48;;;;;;;15.33;38.53;93234.03;5014467;28;20045;-82
2022/01/31 01:49:57;;;;;;;2.90;0.93;;;;;;;15.32;38.58;93216.94;5048362;28;20037;-82
2022/01/31 01:52:22;;;;;;;3.10;1.30;;;;;;;15.31;38.67;93214.72;5031478;28;20045;-82
2022/01/31 01:54:48;;;;;;;3.13;1.30;;;;;;;15.30;38.92;93202.34;5031526;28;20040;-82
2022/01/31 01:57:13;;;;;;;1.95;1.20;;;;;;;15.31;38.82;93195.66;5047748;28;20432;-81
2022/01/31 01:59:40;;;;;;;3.45;1.40;;;;;;;15.28;38.78;93183.03;5031427;28;20044;-82
2022/01/31 02:02:06;;;;;;;2.15;0.95;;;;;;;15.25;38.86;93186.72;5048992;28;20067;-82
2022/01/31 02:04:32;;;;;;;1.50;0.70;;;;;;;15.31;38.48;93173.88;5047526;28;20516;-82
2022/01/31 02:06:57;;;;;;;2.03;1.20;;;;;;;15.28;38.87;93163.97;5031251;28;20487;-82
2022/01/31 02:09:24;;;;;;;1.35;1.10;;;;;;;15.22;39.00;93166.69;5059344;28;20053;-82
2022/01/31 02:11:54;;;;;;;1.80;1.00;;;;;;;15.25;39.02;93164.94;5052854;28;20041;-82
2022/01/31 02:14:20;;;;;;;1.77;1.00;;;;;;;15.35;38.63;93145.16;5039279;28;20037;-81
2022/01/31 02:16:49;;;;;;;2.83;1.00;;;;;;;15.25;38.99;93140.44;5054358;28;20075;-82
2022/01/31 02:19:16;;;;;;;2.92;1.23;;;;;;;15.25;39.18;93138.47;5030789;28;20033;-81
2022/01/31 02:21:42;;;;;;;3.28;1.33;;;;;;;15.25;39.05;93129.53;5031447;28;20035;-82
2022/01/31 02:24:08;;;;;;;1.27;0.70;;;;;;;15.18;39.34;93106.28;5014139;28;20102;-82
2022/01/31 02:26:33;;;;;;;9.65;1.33;;;;;;;15.18;39.12;93106.28;5047520;28;20484;-81
2022/01/31 02:28:58;;;;;;;4.35;1.13;;;;;;;15.28;38.71;93087.72;5031197;28;20033;-82
2022/01/31 02:31:24;;;;;;;1.63;0.88;;;;;;;15.29;38.52;93089.94;5048059;28;20037;-82
2022/01/31 02:33:49;;;;;;;4.60;1.10;;;;;;;15.24;38.89;93087.97;5031032;28;20582;-84
2022/01/31 02:36:14;;;;;;;2.00;0.90;;;;;;;15.29;38.96;93083.75;5030222;28;20049;-82
2022/01/31 02:38:40;;;;;;;3.05;1.00;;;;;;;15.28;38.78;93077.56;5030576;28;20033;-85
2022/01/31 02:41:05;;;;;;;0.70;0.70;;;;;;;15.29;38.68;93072.84;5029922;28;20051;-82
2022/01/31 02:43:32;;;;;;;1.52;0.80;;;;;;;15.30;38.79;93058.75;5030618;28;20046;-81
2022/01/31 02:45:58;;;;;;;1.30;1.02;;;;;;;15.29;38.61;93059.97;5030526;28;20037;-82
2022/01/31 02:48:25;;;;;;;4.75;0.95;;;;;;;15.26;38.81;93052.06;5009352;28;20364;-81
2022/01/31 02:50:51;;;;;;;1.27;0.80;;;;;;;15.25;38.98;93051.31;5045726;28;20135;-82
2022/01/31 02:53:25;;;;;;;2.35;1.00;;;;;;;15.24;38.69;93054.53;5029801;28;20037;-85
2022/01/31 02:55:51;;;;;;;1.63;1.10;;;;;;;15.24;38.82;93049.09;5047308;28;20429;-85
2022/01/31 02:58:17;;;;;;;1.83;0.85;;;;;;;15.27;38.72;93051.56;5046597;28;20044;-82
2022/01/31 03:00:42;;;;;;;3.20;1.30;;;;;;;15.26;38.73;93052.81;5030038;28;20047;-84
2022/01/31 03:03:07;;;;;;;1.92;1.00;;;;;;;15.21;38.88;93045.38;5047473;28;20037;-82
2022/01/31 03:05:33;;;;;;;1.63;1.02;;;;;;;15.25;38.75;93050.56;5047067;28;20045;-81
2022/01/31 03:07:58;;;;;;;1.42;0.70;;;;;;;15.19;38.91;93050.59;5030065;28;20099;-85
2022/01/31 03:10:24;;;;;;;1.33;0.98;;;;;;;15.21;38.69;93036.47;5013001;28;20041;-81
2022/01/31 03:12:49;;;;;;;1.23;0.73;;;;;;;15.23;38.89;93032.00;5030177;28;20048;-82
2022/01/31 03:15:15;;;;;;;2.40;0.88;;;;;;;15.17;38.88;93023.13;5013064;28;20029;-82
2022/01/31 03:17:43;;;;;;;0.93;0.60;;;;;;;15.19;38.76;93020.63;5046419;28;20040;-82
2022/01/31 03:20:09;;;;;;;1.02;0.70;;;;;;;15.17;38.92;93008.75;5047703;28;20053;-81
2022/01/31 03:22:34;;;;;;;2.50;0.90;;;;;;;15.20;39.10;92999.59;5047946;28;20439;-84
2022/01/31 03:25:00;;;;;;;2.15;1.05;;;;;;;15.25;38.85;92993.41;5030055;28;20407;-82
2022/01/31 03:27:25;;;;;;;1.10;0.90;;;;;;;15.25;38.79;92988.69;5046233;28;20037;-81
2022/01/31 03:29:51;;;;;;;2.45;0.90;;;;;;;15.21;38.88;92987.47;5013730;28;20033;-81
2022/01/31 03:32:16;;;;;;;1.85;0.75;;;;;;;15.22;38.97;92978.81;5046013;28;20079;-82
2022/01/31 03:34:41;;;;;;;2.15;0.98;;;;;;;15.25;38.72;92969.63;5046824;28;20040;-81
2022/01/31 03:37:07;;;;;;;2.53;1.00;;;;;;;15.23;38.67;92957.75;5029399;28;20037;-82
2022/01/31 03:39:32;;;;;;;1.55;0.70;;;;;;;15.24;38.85;92957.25;5029530;28;20029;-84
2022/01/31 03:41:58;;;;;;;2.35;0.88;;;;;;;15.27;38.87;92955.53;5046833;28;20430;-82
2022/01/31 03:44:23;;;;;;;2.58;1.10;;;;;;;15.25;38.81;92952.56;5029200;28;20052;-82
2022/01/31 03:46:48;;;;;;;2.03;0.80;;;;;;;15.27;38.45;92941.91;5046368;28;20036;-82
2022/01/31 03:49:14;;;;;;;2.42;0.90;;;;;;;15.29;38.55;92931.25;5045404;28;20037;-85
2022/01/31 03:51:39;;;;;;;2.45;1.13;;;;;;;15.30;38.44;92919.88;5046385;28;20032;-81
2022/01/31 03:54:05;;;;;;;3.03;0.90;;;;;;;15.20;38.88;92902.31;5045993;28;20395;-82
2022/01/31 03:56:30;;;;;;;1.40;0.70;;;;;;;15.27;38.53;92898.34;5013603;28;20500;-81
2022/01/31 03:58:55;;;;;;;1.67;1.02;;;;;;;15.24;38.86;92897.34;5046024;28;20041;-81
2022/01/31 04:01:24;;;;;;;3.05;1.00;;;;;;;15.20;38.97;92883.25;5048199;28;20044;-81
2022/01/31 04:03:49;;;;;;;1.40;0.88;;;;;;;15.22;38.52;92886.22;5032673;28;20029;-82
2022/01/31 04:06:15;;;;;;;1.25;0.70;;;;;;;15.20;38.93;92894.16;5033043;28;20041;-82
2022/01/31 04:08:40;;;;;;;1.45;0.93;;;;;;;15.19;38.76;92883.75;5049881;28;20099;-82
2022/01/31 04:11:05;;;;;;;1.92;0.90;;;;;;;15.19;38.58;92879.06;5032732;28;20045;-82
2022/01/31 04:13:31;;;;;;;1.92;0.82;;;;;;;15.32;38.38;92867.63;5033338;28;20032;-81
2022/01/31 04:15:56;;;;;;;1.95;1.00;;;;;;;15.27;38.46;92868.38;5050413;28;20483;-82
2022/01/31 04:18:22;;;;;;;1.92;0.90;;;;;;;15.27;38.26;92882.00;5032588;28;20424;-82
2022/01/31 04:20:47;;;;;;;1.48;0.70;;;;;;;15.32;38.37;92871.09;5033105;28;20049;-84
2022/01/31 04:23:16;;;;;;;1.60;0.90;;;;;;;15.28;38.57;92859.72;5016189;28;20037;-81
2022/01/31 04:28:16;;;;;;;1.73;0.68;;;;;;;15.25;38.53;92847.09;5032230;28;20056;-82
2022/01/31 04:30:46;;;;;;;1.13;0.82;;;;;;;15.19;39.08;92834.75;5049987;28;20056;-82
2022/01/31 04:33:12;;;;;;;1.13;0.68;;;;;;;15.21;38.47;92824.84;5032738;28;20037;-82
2022/01/31 04:35:37;;;;;;;0.77;0.60;;;;;;;15.25;38.58;92824.59;5049703;28;20541;-82
2022/01/31 04:38:03;;;;;;;0.95;0.85;;;;;;;15.22;38.75;92826.31;5032132;28;20029;-82
2022/01/31 04:40:29;;;;;;;1.90;0.80;;;;;;;15.25;38.77;92817.16;5032582;28;20099;-81
2022/01/31 04:42:54;;;;;;;3.35;1.30;;;;;;;15.22;38.83;92790.94;5049622;28;20045;-81
2022/01/31 04:45:20;;;;;;;1.23;0.63;;;;;;;15.29;38.59;92790.41;5049033;28;20029;-82
2022/01/31 04:47:45;;;;;;;0.93;0.70;;;;;;;15.24;38.41;92765.94;5050748;28;20045;-84
2022/01/31 04:50:10;;;;;;;1.85;0.73;;;;;;;15.26;38.41;92758.00;5032663;28;20033;-82
2022/01/31 04:52:38;;;;;;;1.42;0.70;;;;;;;15.23;38.74;92737.97;5012510;28;20468;-83
2022/01/31 04:55:05;;;;;;;1.92;0.70;;;;;;;15.32;38.11;92742.38;5012679;28;20065;-82
2022/01/31 04:57:30;;;;;;;1.95;0.90;;;;;;;15.22;38.78;92741.91;5045431;28;20064;-82
2022/01/31 04:59:56;;;;;;;2.30;0.80;;;;;;;15.24;38.81;92738.69;5029697;28;20456;-85
2022/01/31 05:02:23;;;;;;;1.10;0.70;;;;;;;15.21;38.63;92729.56;5028668;28;20048;-81
2022/01/31 05:04:48;;;;;;;1.00;0.70;;;;;;;15.25;39.33;92723.84;5045825;28;20036;-82
2022/01/31 05:07:15;;;;;;;2.97;0.80;;;;;;;15.22;38.81;92719.41;5028391;28;20029;-82
2022/01/31 05:09:40;;;;;;;0.90;0.70;;;;;;;15.20;38.26;92722.63;5045504;28;20041;-81
2022/01/31 05:12:07;;;;;;;1.58;0.70;;;;;;;15.27;38.46;92724.81;5027612;28;20045;-82
2022/01/31 05:14:32;;;;;;;2.83;1.08;;;;;;;15.26;38.78;92709.72;5045299;28;20040;-82
2022/01/31 05:16:57;;;;;;;2.58;1.05;;;;;;;15.24;38.46;92687.69;5029190;28;20053;-82
2022/01/31 05:19:24;;;;;;;2.45;0.95;;;;;;;15.19;38.56;92685.75;5044758;28;20386;-86
2022/01/31 05:21:49;;;;;;;1.95;0.70;;;;;;;15.29;38.59;92689.66;5028667;28;20091;-84
2022/01/31 05:24:15;;;;;;;20.63;10.93;;;;;;;15.22;38.94;92682.03;5045474;28;20492;-82
2022/01/31 05:26:40;;;;;;;3.28;1.60;;;;;;;15.27;38.61;92661.44;5029522;28;20041;-81
2022/01/31 05:29:06;;;;;;;3.05;1.67;;;;;;;15.30;38.69;92652.28;5045362;28;20049;-83
2022/01/31 05:31:31;;;;;;;4.85;2.65;;;;;;;15.30;38.75;92657.72;5045689;28;20049;-86
2022/01/31 05:33:57;;;;;;;3.00;1.92;;;;;;;15.39;38.57;92662.81;5049403;28;20067;-83
2022/01/31 05:36:23;;;;;;;5.90;2.83;;;;;;;15.33;38.67;92665.59;5033260;28;20399;-83
2022/01/31 05:38:49;;;;;;;109.55;66.40;;;;;;;15.39;38.70;92655.38;5033113;28;20041;-84
2022/01/31 05:41:18;;;;;;;18.20;7.97;;;;;;;15.49;38.61;92638.72;5031320;28;20465;-83
2022/01/31 05:43:45;;;;;;;29.85;26.27;;;;;;;15.55;38.84;92621.09;5036552;28;20056;-88
2022/01/31 05:46:12;;;;;;;14.95;6.20;;;;;;;15.53;38.45;92622.84;5032813;28;20037;-89
2022/01/31 05:48:38;;;;;;;14.43;5.43;;;;;;;15.40;38.78;92631.63;5050172;28;20040;-88
2022/01/31 05:51:04;;;;;;;46.90;11.30;;;;;;;15.46;38.71;92639.75;5029619;28;20033;-86
2022/01/31 05:53:30;;;;;;;29.42;10.00;;;;;;;15.39;38.58;92636.31;5038194;28;20033;-86
2022/01/31 05:55:57;;;;;;;25.58;8.57;;;;;;;15.26;34.67;92646.34;5047810;28;20040;-87
2022/01/31 05:58:22;;;;;;;36.60;12.25;;;;;;;15.15;32.97;92665.53;5038199;28;20045;-86
2022/01/31 06:00:48;;;;;;;66.95;21.85;;;;;;;15.00;33.22;92655.72;5031986;28;20029;-87
2022/01/31 06:03:13;;;;;;;66.43;20.38;;;;;;;15.04;33.58;92653.47;5028646;28;20041;-87
2022/01/31 06:05:39;;;;;;;111.68;38.00;;;;;;;14.96;34.14;92647.09;5029355;28;20033;-87
2022/01/31 06:08:04;;;;;;;105.18;32.70;;;;;;;15.00;34.23;92644.84;5044921;28;20041;-89
2022/01/31 06:10:32;;;;;;;121.95;28.27;;;;;;;15.00;34.16;92657.69;5018020;28;20040;-86
2022/01/31 06:12:57;;;;;;;66.50;20.27;;;;;;;15.09;35.03;92651.94;5020801;28;20037;-87
2022/01/31 06:15:23;;;;;;;78.13;25.40;;;;;;;15.03;35.63;92646.53;5035520;28;20040;-88
2022/01/31 06:17:49;;;;;;;70.93;26.23;;;;;;;15.00;36.01;92642.13;5048163;28;20393;-87
2022/01/31 06:20:14;;;;;;;42.60;16.48;;;;;;;15.03;34.05;92646.53;5012940;28;20041;-85
2022/01/31 06:22:45;;;;;;;25.80;11.02;;;;;;;14.88;33.94;92632.56;5039750;28;20064;-86
2022/01/31 06:25:12;;;;;;;117.32;27.33;;;;;;;14.90;33.84;92621.91;5021054;28;20128;-86
2022/01/31 06:27:44;;;;;;;110.93;28.30;;;;;;;14.89;34.26;92614.25;5024773;28;20057;-89
2022/01/31 06:30:09;;;;;;;140.93;38.72;;;;;;;14.96;34.91;92603.53;5024124;28;20243;-87
2022/01/31 06:32:35;;;;;;;118.22;39.00;;;;;;;14.95;35.87;92604.78;5024322;28;20048;-88
2022/01/31 06:35:01;;;;;;;142.60;38.67;;;;;;;15.01;36.19;92597.31;5019332;28;20040;-89
2022/01/31 06:37:38;;;;;;;;;;;;;;;;;;;;;
2022/01/31 06:40:05;;;;;;;85.72;27.73;;;;;;;14.91;35.04;92590.75;4969272;28;20048;-88
2022/01/31 06:42:30;;;;;;;75.32;23.77;;;;;;;14.93;35.33;92585.53;5058731;28;20049;-87
2022/01/31 06:44:55;;;;;;;61.38;18.05;;;;;;;14.88;34.66;92578.16;5043124;28;20048;-87
2022/01/31 06:47:21;;;;;;;60.03;15.55;;;;;;;14.80;33.67;92577.22;5032091;28;20036;-88
2022/01/31 06:49:47;;;;;;;50.78;12.65;;;;;;;14.65;33.20;92572.16;5049809;28;20033;-88
2022/01/31 06:52:12;;;;;;;35.25;11.63;;;;;;;14.66;32.55;92578.31;5033599;28;20480;-88
2022/01/31 06:54:37;;;;;;;40.80;15.25;;;;;;;14.62;32.51;92556.09;5030554;28;20472;-87
2022/01/31 06:57:04;;;;;;;74.45;20.35;;;;;;;14.67;32.59;92575.09;5013257;28;20029;-89
2022/01/31 06:59:30;;;;;;;80.40;29.52;;;;;;;14.73;32.73;92573.06;5029176;28;20048;-88
2022/01/31 07:01:56;;;;;;;141.63;57.15;;;;;;;14.81;33.14;92584.13;5033660;28;20041;-85
2022/01/31 07:04:21;;;;;;;99.15;41.58;;;;;;;14.85;33.87;92571.00;5050095;28;20037;-86
2022/01/31 07:06:46;;;;;;;112.43;45.58;;;;;;;14.87;35.01;92570.50;5021645;28;20528;-90
2022/01/31 07:09:12;;;;;;;113.28;43.97;;;;;;;14.86;35.51;92575.19;5047734;28;20032;-86
2022/01/31 07:11:40;;;;;;;94.88;39.80;;;;;;;14.96;35.63;92564.72;5010927;28;20068;-88
2022/01/31 07:14:13;;;;;;;95.13;44.25;;;;;;;14.96;35.52;92554.56;5016085;28;20695;-86
2022/01/31 07:16:39;;;;;;;118.97;44.90;;;;;;;14.97;35.72;92552.56;5031462;28;20033;-84
2022/01/31 07:19:07;;;;;;;116.78;43.95;;;;;;;14.98;35.76;92548.59;5045935;28;20037;-86
2022/01/31 07:21:39;;;;;;;87.55;39.53;;;;;;;15.02;35.80;92543.63;5029911;28;20102;-85
2022/01/31 07:24:18;;;;;;;;;;;;;;;15.00;35.91;92533.25;5063196;28;20041;-85
2022/01/31 07:26:45;;;;;;;69.25;31.70;;;;;;;14.91;34.92;92524.69;5042939;28;19971;-84
2022/01/31 07:29:10;;;;;;;68.55;29.98;;;;;;;14.88;35.06;92526.44;5030340;28;20392;-86
2022/01/31 07:31:36;;;;;;;65.82;29.63;;;;;;;14.91;34.98;92532.84;5011771;28;20048;-88
2022/01/31 07:34:01;;;;;;;87.95;35.30;;;;;;;14.97;35.18;92536.97;5046272;28;20120;-84
2022/01/31 07:36:27;;;;;;;82.95;33.67;;;;;;;14.98;35.47;92527.56;5044610;28;20499;-87
2022/01/31 07:38:52;;;;;;;106.95;41.25;;;;;;;14.98;35.55;92529.56;5045032;28;20124;-87
2022/01/31 07:41:18;;;;;;;98.20;35.85;;;;;;;15.04;35.86;92520.09;5013584;28;20055;-86
2022/01/31 07:43:44;;;;;;;79.65;34.58;;;;;;;15.05;35.50;92527.03;5047409;28;20412;-84
2022/01/31 07:46:14;;;;;;;82.63;38.63;;;;;;;14.99;35.77;92518.16;5010507;28;20041;-89
2022/01/31 07:48:39;;;;;;;78.90;35.42;;;;;;;15.06;35.87;92530.47;5030302;28;20044;-87
2022/01/31 07:51:05;;;;;;;61.58;32.22;;;;;;;15.07;35.80;92529.97;5050778;28;20033;-88
2022/01/31 07:53:30;;;;;;;66.68;32.03;;;;;;;15.12;35.67;92522.25;5030770;28;20121;-83
2022/01/31 07:55:56;;;;;;;64.60;31.85;;;;;;;15.11;35.73;92523.50;5028886;28;20037;-85
2022/01/31 07:58:21;;;;;;;67.00;29.17;;;;;;;15.08;35.79;92512.41;5053377;28;21506;-85
2022/01/31 08:00:46;;;;;;;72.32;34.17;;;;;;;15.15;35.90;92494.75;5010754;28;20033;-88
2022/01/31 08:03:12;;;;;;;83.22;38.92;;;;;;;15.10;35.96;92495.56;5017057;28;20125;-84
2022/01/31 08:05:38;;;;;;;71.85;34.40;;;;;;;15.16;35.83;92493.50;5013029;28;20044;-85
2022/01/31 08:08:06;;;;;;;97.22;42.45;;;;;;;15.18;35.55;92501.16;5029771;28;20041;-86
2022/01/31 08:10:35;;;;;;;88.95;41.92;;;;;;;15.12;36.17;92481.44;5030104;28;20044;-85
2022/01/31 08:13:02;;;;;;;118.40;43.25;;;;;;;15.17;35.72;92470.47;5038477;28;20053;-86
2022/01/31 08:15:29;;;;;;;84.25;31.50;;;;;;;15.02;34.11;92475.59;5029935;28;20037;-87
2022/01/31 08:17:54;;;;;;;71.70;28.25;;;;;;;14.90;34.04;92466.06;5028963;28;20492;-85
2022/01/31 08:20:20;;;;;;;85.20;27.85;;;;;;;14.96;33.70;92448.44;5044742;28;20491;-87
2022/01/31 08:22:45;;;;;;;82.80;33.53;;;;;;;14.94;34.30;92447.50;5030327;28;20407;-85
2022/01/31 08:25:14;;;;;;;127.22;40.92;;;;;;;14.97;34.70;92457.31;5028804;28;20044;-87
2022/01/31 08:27:45;;;;;;;70.78;29.33;;;;;;;14.90;34.98;92452.47;5026589;28;20681;-86
2022/01/31 08:30:15;;;;;;;98.65;37.22;;;;;;;14.95;35.13;92433.34;5042124;28;20139;-86
2022/01/31 08:32:45;;;;;;;89.38;38.53;;;;;;;14.95;35.64;92438.03;5061581;28;20414;-86
2022/01/31 08:37:55;;;;;;;83.70;40.20;;;;;;;15.09;35.80;92442.34;5023377;28;20261;-87
2022/01/31 08:40:21;;;;;;;104.20;43.17;;;;;;;15.06;36.00;92451.53;5030172;28;20168;-87
2022/01/31 08:42:46;;;;;;;122.35;41.30;;;;;;;15.12;35.68;92438.63;5058034;28;20407;-87
2022/01/31 08:45:12;;;;;;;101.43;40.78;;;;;;;15.15;35.74;92432.16;5041788;28;20099;-87
2022/01/31 08:47:41;;;;;;;73.25;32.83;;;;;;;15.06;35.88;92427.78;5047223;28;20404;-87
2022/01/31 08:50:09;;;;;;;80.72;36.38;;;;;;;15.15;35.96;92425.97;5033165;28;20474;-86
2022/01/31 08:52:34;;;;;;;86.68;36.28;;;;;;;15.14;35.90;92413.59;5028384;28;20080;-88
2022/01/31 08:55:00;;;;;;;114.15;45.95;;;;;;;15.13;36.02;92415.59;5029922;28;20045;-87
2022/01/31 08:57:25;;;;;;;111.65;48.30;;;;;;;15.16;35.79;92413.81;5045603;28;20059;-87
2022/01/31 08:59:52;;;;;;;135.02;56.33;;;;;;;15.16;35.69;92408.38;5039363;28;20033;-87
2022/01/31 09:02:19;;;;;;;170.07;74.93;;;;;;;15.14;35.85;92413.59;5033079;28;20037;-87
2022/01/31 09:07:12;;;;;;;164.60;78.32;;;;;;;15.19;36.07;92399.16;5040006;28;20110;-87
2022/01/31 09:09:38;;;;;;;122.95;55.47;;;;;;;15.27;36.06;92394.63;5045513;28;20407;-87
2022/01/31 09:12:06;;;;;;;197.55;92.32;;;;;;;15.27;36.30;92389.91;5047663;28;20553;-87
2022/01/31 09:14:31;;;;;;;156.95;66.32;;;;;;;15.18;34.26;92373.19;5036905;28;20120;-87
2022/01/31 09:16:57;;;;;;;162.85;67.22;;;;;;;15.14;34.90;92378.22;5044770;28;20132;-87
2022/01/31 09:19:23;;;;;;;133.05;58.83;;;;;;;15.09;34.76;92377.78;5031378;28;20395;-88
2022/01/31 09:21:49;;;;;;;130.70;61.58;;;;;;;15.12;34.98;92369.84;5016736;28;20158;-86
2022/01/31 09:24:14;;;;;;;144.73;62.67;;;;;;;15.14;35.17;92368.06;5001499;28;20572;-87
2022/01/31 09:26:40;;;;;;;128.70;56.15;;;;;;;15.10;35.26;92359.47;5030212;28;20396;-86
2022/01/31 09:29:05;;;;;;;123.38;57.40;;;;;;;15.05;35.21;92357.53;5023838;28;20802;-87
2022/01/31 09:31:31;;;;;;;124.63;56.60;;;;;;;15.06;35.27;92367.91;5050411;28;20052;-86
2022/01/31 09:33:57;;;;;;;145.95;61.38;;;;;;;15.12;35.74;92354.25;5036358;28;20025;-87
2022/01/31 09:36:23;;;;;;;103.10;51.78;;;;;;;15.18;35.78;92356.88;5048451;28;20044;-86
2022/01/31 09:38:49;;;;;;;150.82;64.35;;;;;;;15.16;36.25;92348.47;5016056;28;20037;-88
2022/01/31 09:41:20;;;;;;;139.02;63.03;;;;;;;15.15;36.36;92339.59;5010971;28;20574;-85
2022/01/31 09:46:33;;;;;;;119.90;53.85;;;;;;;15.16;36.51;92319.28;5029287;28;20029;-87
2022/01/31 09:48:58;;;;;;;101.88;42.70;;;;;;;15.14;35.88;92312.91;5039948;28;20127;-87
2022/01/31 09:51:25;;;;;;;90.43;37.83;;;;;;;15.09;35.95;92298.84;5016903;28;20056;-87
2022/01/31 09:53:53;;;;;;;87.50;40.95;;;;;;;15.08;36.04;92302.81;5017774;28;20071;-88
2022/01/31 09:56:27;;;;;;;83.90;41.70;;;;;;;15.07;35.87;92284.28;5039986;28;20044;-89
2022/01/31 09:58:54;;;;;;;121.90;46.45;;;;;;;15.14;36.02;92291.13;5020865;28;20056;-88
2022/01/31 10:01:26;;;;;;;108.47;50.75;;;;;;;15.16;36.31;92286.59;5030270;28;20118;-86
2022/01/31 10:03:56;;;;;;;114.45;50.78;;;;;;;15.22;36.40;92278.38;5043797;28;20637;-87
2022/01/31 10:06:26;;;;;;;122.30;57.78;;;;;;;15.22;36.38;92273.66;5012724;28;20152;-88
2022/01/31 10:09:03;;;;;;;119.72;55.35;;;;;;;15.22;36.59;92259.31;5040141;28;20045;-87
2022/01/31 10:11:30;;;;;;;117.10;56.30;;;;;;;15.23;36.33;92258.06;5059716;28;20087;-88
2022/01/31 10:17:08;;;;;;;118.35;59.67;;;;;;;15.26;36.46;92257.75;5051633;28;20044;-87
2022/01/31 10:19:38;;;;;;;117.45;59.38;;;;;;;15.23;36.47;92242.47;5028459;28;20044;-87
2022/01/31 10:22:05;;;;;;;112.15;59.60;;;;;;;15.20;36.73;92234.59;5026833;28;20049;-87
2022/01/31 10:24:32;;;;;;;115.32;56.38;;;;;;;15.29;36.53;92229.50;5028344;28;20033;-86
2022/01/31 10:27:04;;;;;;;127.60;55.83;;;;;;;15.26;36.25;92219.66;5028108;28;20040;-86
2022/01/31 10:29:30;;;;;;;147.98;62.25;;;;;;;15.27;36.57;92217.66;5026598;28;20052;-85
2022/01/31 10:32:04;;;;;;;100.45;54.42;;;;;;;15.26;36.78;92208.75;5067318;28;20064;-85
2022/01/31 10:34:31;;;;;;;115.03;56.75;;;;;;;15.26;36.57;92200.59;5044367;28;20112;-86
2022/01/31 10:37:09;;;;;;;115.25;55.00;;;;;;;15.27;36.59;92195.88;5026321;28;20041;-86
2022/01/31 10:53:49;;;;;;;189.07;73.45;;;;;;;15.27;37.05;92158.50;5046824;28;20051;-86
2022/01/31 10:56:14;;;;;;;193.05;88.57;;;;;;;15.36;36.85;92149.94;5045914;28;20033;-86
2022/01/31 10:58:57;;;;;;;217.73;95.57;;;;;;;15.35;36.92;92155.91;5046731;28;20041;-86
2022/01/31 11:01:23;;;;;;;227.00;113.05;;;;;;;15.41;36.76;92151.06;5035295;28;20025;-86
2022/01/31 11:03:48;;;;;;;202.38;96.82;;;;;;;15.46;38.83;92142.09;5009752;28;20068;-85
2022/01/31 11:06:14;;;;;;;207.93;104.43;;;;;;;15.44;36.75;92133.69;5059208;28;20449;-85
2022/01/31 11:08:39;;;;;;;272.20;157.57;;;;;;;15.54;37.09;92120.41;5013895;28;20498;-87
2022/01/31 11:11:05;;;;;;;226.57;105.07;;;;;;;15.53;37.83;92125.13;5045345;28;20081;-87
2022/01/31 11:13:35;;;;;;;206.90;104.55;;;;;;;15.53;37.78;92129.84;5031434;28;20025;-86
2022/01/31 11:16:00;;;;;;;185.35;94.68;;;;;;;15.65;37.61;92125.69;5030609;28;20049;-86
2022/01/31 11:18:28;;;;;;;184.57;95.22;;;;;;;15.68;37.16;92119.19;5065889;28;20036;-88
2022/01/31 11:21:00;;;;;;;191.65;93.47;;;;;;;15.63;36.91;92120.75;5051066;28;20091;-86
2022/01/31 11:23:27;;;;;;;176.77;91.20;;;;;;;15.64;36.72;92114.03;5017660;28;20518;-88
2022/01/31 11:25:53;;;;;;;159.25;79.38;;;;;;;15.71;36.45;92090.91;5046733;28;20036;-86
2022/01/31 11:28:19;;;;;;;177.95;89.75;;;;;;;15.69;36.82;92098.84;5028973;28;20381;-87
2022/01/31 11:30:44;;;;;;;160.40;84.97;;;;;;;15.64;37.04;92103.16;5031373;28;20075;-85
2022/01/31 11:33:10;;;;;;;165.20;81.78;;;;;;;15.62;36.95;92089.31;5055039;28;20040;-86
2022/01/31 11:35:35;;;;;;;147.13;76.75;;;;;;;15.59;36.76;92101.25;5053336;28;20339;-85
2022/01/31 11:38:00;;;;;;;146.50;79.15;;;;;;;15.65;36.96;92106.59;5052712;28;20063;-87
2022/01/31 11:40:26;;;;;;;148.57;75.22;;;;;;;15.70;36.78;92113.94;5014442;28;20045;-84
2022/01/31 11:42:51;;;;;;;135.05;72.82;;;;;;;15.72;37.02;92114.91;5015652;28;20038;-85
2022/01/31 11:45:18;;;;;;;126.95;67.50;;;;;;;15.68;36.92;92117.19;5014383;28;20034;-86
2022/01/31 11:47:46;;;;;;;121.70;61.45;;;;;;;15.73;36.88;92119.09;5031062;28;20045;-84
2022/01/31 11:50:14;;;;;;;101.20;56.72;;;;;;;15.72;36.62;92112.16;5031545;28;20040;-85
2022/01/31 11:52:47;;;;;;;99.72;53.08;;;;;;;15.67;36.55;92107.56;5037978;28;20044;-85